Time;durP1;ratioP1;P1;durP2;ratioP2;P2;SDS_P1;SDS_P2;PMS_P1;PMS_P2;Temp;Humidity;BMP_temperature;BMP_pressure;BME280_temperature;BME280_humidity;BME280_pressure;Samples;Min_cycle;Max_cycle;Signal;HPM_P1;HPM_P2
2022/04/29 00:02:16;;;;;;;1.00;1.00;;;7.20;99.90;;;;;;5068803;28;20256;-91
2022/04/29 00:04:43;;;;;;;1.70;1.50;;;7.10;99.90;;;;;;5050298;28;21138;-91
2022/04/29 00:07:10;;;;;;;1.07;0.97;;;7.10;99.90;;;;;;5066439;28;20279;-91
2022/04/29 00:09:37;;;;;;;1.73;1.53;;;7.10;99.90;;;;;;5084305;28;20674;-92
2022/04/29 00:12:06;;;;;;;4.37;1.67;;;7.10;99.90;;;;;;5033138;28;20218;-91
2022/04/29 00:14:32;;;;;;;1.53;0.90;;;7.00;99.90;;;;;;5085491;28;20284;-92
2022/04/29 00:16:58;;;;;;;3.00;2.00;;;7.00;99.90;;;;;;5070552;28;20186;-93
2022/04/29 00:19:24;;;;;;;2.73;1.70;;;7.00;99.90;;;;;;5036635;28;20224;-93
2022/04/29 00:21:50;;;;;;;1.47;1.37;;;7.00;99.90;;;;;;5053244;28;20275;-93
2022/04/29 00:24:16;;;;;;;1.97;1.53;;;7.00;99.90;;;;;;5069571;28;20251;-93
2022/04/29 00:26:42;;;;;;;2.97;1.60;;;7.00;99.90;;;;;;5035962;28;20662;-93
2022/04/29 00:29:09;;;;;;;1.97;1.40;;;6.90;99.90;;;;;;5036416;28;20220;-94
2022/04/29 00:31:35;;;;;;;1.53;1.33;;;6.90;99.90;;;;;;5033691;28;20218;-92
2022/04/29 00:34:01;;;;;;;2.53;2.33;;;6.90;99.90;;;;;;5032801;28;20245;-92
2022/04/29 00:36:27;;;;;;;7.50;2.63;;;7.00;99.90;;;;;;5084237;28;20218;-92
2022/04/29 00:38:53;;;;;;;1.30;1.23;;;7.00;99.90;;;;;;5052639;28;20214;-92
2022/04/29 00:41:22;;;;;;;2.00;1.47;;;7.00;99.90;;;;;;5068730;28;20617;-92
2022/04/29 00:44:09;;;;;;;1.90;1.50;;;7.00;99.90;;;;;;5035013;28;20640;-92
2022/04/29 00:46:40;;;;;;;1.87;1.40;;;7.00;99.90;;;;;;5050346;28;20218;-92
2022/04/29 00:49:10;;;;;;;2.17;0.90;;;7.00;99.90;;;;;;5055799;28;20246;-93
2022/04/29 00:51:37;;;;;;;1.97;1.37;;;7.00;99.90;;;;;;5085516;28;20237;-92
2022/04/29 00:54:06;;;;;;;2.80;2.57;;;6.80;99.90;;;;;;5051515;28;20233;-93
2022/04/29 00:56:36;;;;;;;2.30;1.63;;;6.70;99.90;;;;;;5081803;28;20277;-93
2022/04/29 00:59:09;;;;;;;6.00;2.20;;;6.60;99.90;;;;;;5067608;28;20174;-92
2022/04/29 01:01:37;;;;;;;3.20;1.53;;;6.60;99.90;;;;;;5049922;28;20709;-92
2022/04/29 01:04:04;;;;;;;1.63;1.53;;;6.60;99.90;;;;;;5084960;28;20222;-93
2022/04/29 01:06:31;;;;;;;2.47;1.90;;;6.60;99.90;;;;;;5034128;28;20600;-92
2022/04/29 01:08:56;;;;;;;2.57;1.73;;;6.60;99.90;;;;;;5084653;28;20209;-93
2022/04/29 01:11:26;;;;;;;4.67;2.07;;;6.60;99.90;;;;;;5033414;28;20186;-93
2022/04/29 01:13:53;;;;;;;1.50;1.40;;;6.60;99.90;;;;;;5034437;28;20236;-93
2022/04/29 01:16:20;;;;;;;2.43;2.23;;;6.60;99.90;;;;;;5067846;28;20555;-93
2022/04/29 01:18:47;;;;;;;2.53;1.40;;;6.60;99.90;;;;;;5034248;28;20903;-92
2022/04/29 01:21:13;;;;;;;7.40;2.17;;;6.50;99.90;;;;;;5034412;28;20218;-93
2022/04/29 01:23:41;;;;;;;1.77;1.30;;;6.40;99.90;;;;;;5085055;28;20232;-92
2022/04/29 01:26:07;;;;;;;3.03;2.13;;;6.40;99.90;;;;;;5067753;28;20201;-92
2022/04/29 01:28:35;;;;;;;5.60;2.33;;;6.40;99.90;;;;;;5067031;28;20214;-92
2022/04/29 01:31:03;;;;;;;10.80;1.50;;;6.50;99.90;;;;;;5083512;28;20210;-92
2022/04/29 01:33:31;;;;;;;4.23;2.93;;;6.50;99.90;;;;;;5067311;28;20214;-92
2022/04/29 01:35:57;;;;;;;7.70;2.23;;;6.50;99.90;;;;;;5067017;28;20609;-92
2022/04/29 01:38:23;;;;;;;2.27;2.07;;;6.60;99.90;;;;;;5032065;28;20241;-92
2022/04/29 01:40:49;;;;;;;3.37;2.43;;;6.60;99.90;;;;;;5069346;28;20209;-93
2022/04/29 01:43:15;;;;;;;1.67;0.90;;;6.60;99.90;;;;;;5066185;28;20236;-91
2022/04/29 01:45:41;;;;;;;27.63;2.07;;;6.70;99.90;;;;;;5066350;28;20247;-91
2022/04/29 01:48:06;;;;;;;3.63;1.53;;;6.60;99.90;;;;;;5032856;28;20728;-92
2022/04/29 01:50:32;;;;;;;1.57;1.43;;;6.60;99.90;;;;;;5032628;28;20297;-93
2022/04/29 01:52:58;;;;;;;1.90;1.50;;;6.60;99.90;;;;;;5033235;28;20190;-92
2022/04/29 01:55:24;;;;;;;1.07;1.00;;;6.60;99.90;;;;;;5065647;28;20717;-92
2022/04/29 01:57:50;;;;;;;1.33;1.23;;;6.60;99.90;;;;;;5032282;28;20318;-93
2022/04/29 02:00:17;;;;;;;2.40;1.97;;;6.60;99.90;;;;;;5065471;28;20263;-92
2022/04/29 02:02:43;;;;;;;2.07;1.50;;;6.60;99.90;;;;;;5082605;28;20781;-92
2022/04/29 02:05:09;;;;;;;3.03;2.17;;;6.60;99.90;;;;;;5032993;28;20198;-92
2022/04/29 02:07:35;;;;;;;1.83;1.53;;;6.70;99.90;;;;;;5031718;28;20988;-92
2022/04/29 02:10:01;;;;;;;1.77;1.63;;;6.70;99.90;;;;;;5032061;28;20218;-92
2022/04/29 02:12:27;;;;;;;5.33;1.73;;;6.70;99.90;;;;;;5049240;28;20210;-91
2022/04/29 02:14:53;;;;;;;2.33;1.83;;;6.60;99.90;;;;;;5065738;28;20543;-92
2022/04/29 02:17:18;;;;;;;5.53;2.13;;;6.60;99.90;;;;;;5065709;28;20197;-92
2022/04/29 02:19:44;;;;;;;2.63;1.70;;;6.60;99.90;;;;;;5034214;28;20585;-91
2022/04/29 02:22:10;;;;;;;1.60;1.30;;;6.60;99.90;;;;;;5049220;28;20228;-91
2022/04/29 02:24:37;;;;;;;2.70;1.73;;;6.40;99.90;;;;;;5033164;28;20206;-93
2022/04/29 02:27:07;;;;;;;4.50;2.37;;;6.10;99.90;;;;;;5031579;28;20249;-92
2022/04/29 02:29:34;;;;;;;1.43;1.43;;;6.00;99.90;;;;;;5035449;28;20681;-92
2022/04/29 02:32:00;;;;;;;2.03;1.53;;;6.00;99.90;;;;;;5037306;28;20175;-92
2022/04/29 02:34:26;;;;;;;1.77;1.67;;;6.00;99.90;;;;;;5065821;28;20225;-92
2022/04/29 02:36:53;;;;;;;1.80;1.43;;;6.10;99.90;;;;;;5050923;28;20297;-92
2022/04/29 02:39:19;;;;;;;6.83;2.03;;;6.20;99.90;;;;;;5047947;28;20550;-92
2022/04/29 02:41:46;;;;;;;4.33;3.00;;;6.20;99.90;;;;;;5048756;28;20576;-93
2022/04/29 02:44:12;;;;;;;2.53;1.80;;;6.20;99.90;;;;;;5032987;28;20618;-92
2022/04/29 02:47:06;;;;;;;2.17;1.90;;;6.20;99.90;;;;;;5065657;28;20234;-92
2022/04/29 02:49:27;;;;;;;1.90;1.80;;;6.20;99.90;;;;;;5051350;28;20214;-92
2022/04/29 02:51:53;;;;;;;3.90;2.03;;;6.10;99.90;;;;;;5082468;28;20214;-92
2022/04/29 02:54:19;;;;;;;2.73;2.17;;;6.10;99.90;;;;;;5035327;28;20233;-92
2022/04/29 02:56:44;;;;;;;2.63;2.20;;;6.00;99.90;;;;;;5068694;28;20263;-92
2022/04/29 02:59:10;;;;;;;1.33;1.27;;;6.00;99.90;;;;;;5068911;28;20182;-91
2022/04/29 03:01:36;;;;;;;1.33;1.23;;;6.10;99.90;;;;;;5036335;28;20251;-92
2022/04/29 03:04:02;;;;;;;1.70;1.60;;;6.10;99.90;;;;;;5035809;28;20215;-91
2022/04/29 03:06:28;;;;;;;1.83;1.47;;;6.10;99.90;;;;;;5036001;28;20201;-91
2022/04/29 03:08:54;;;;;;;3.30;1.30;;;6.20;99.90;;;;;;5035490;28;20554;-91
2022/04/29 03:11:20;;;;;;;5.93;1.93;;;6.20;99.90;;;;;;5035130;28;20252;-92
2022/04/29 03:13:45;;;;;;;3.13;1.53;;;6.30;99.90;;;;;;5036300;28;20181;-91
2022/04/29 03:16:13;;;;;;;1.63;1.27;;;6.20;99.90;;;;;;5068749;28;20232;-91
2022/04/29 03:18:40;;;;;;;1.93;1.80;;;6.20;99.90;;;;;;5068717;28;20297;-91
2022/04/29 03:21:05;;;;;;;2.87;1.97;;;6.20;99.90;;;;;;5034240;28;20222;-91
2022/04/29 03:23:31;;;;;;;9.23;2.27;;;6.20;99.90;;;;;;5068941;28;20190;-93
2022/04/29 03:25:57;;;;;;;3.53;1.63;;;6.30;99.90;;;;;;5069241;28;20536;-92
2022/04/29 03:28:23;;;;;;;1.87;1.73;;;6.40;99.90;;;;;;5051874;28;20214;-91
2022/04/29 03:30:49;;;;;;;1.43;1.33;;;6.50;99.90;;;;;;5068920;28;20209;-91
2022/04/29 03:33:15;;;;;;;1.67;1.57;;;6.60;99.90;;;;;;5035913;28;20217;-92
2022/04/29 03:35:43;;;;;;;4.93;2.33;;;6.70;99.90;;;;;;5037195;28;20308;-92
2022/04/29 03:38:09;;;;;;;2.33;2.13;;;6.70;99.90;;;;;;5052551;28;20190;-91
2022/04/29 03:40:34;;;;;;;2.83;2.63;;;6.80;99.90;;;;;;5034596;28;20706;-91
2022/04/29 03:43:00;;;;;;;1.67;1.57;;;6.80;99.90;;;;;;5035692;28;20214;-92
2022/04/29 03:45:27;;;;;;;1.70;1.40;;;6.90;99.90;;;;;;5070024;28;20244;-91
2022/04/29 03:47:57;;;;;;;2.70;1.77;;;6.90;99.90;;;;;;5086319;28;20206;-92
2022/04/29 03:50:23;;;;;;;3.03;1.77;;;6.90;99.90;;;;;;5069428;28;20186;-91
2022/04/29 03:52:54;;;;;;;3.63;1.53;;;7.00;99.90;;;;;;5036521;28;20293;-92
2022/04/29 03:55:22;;;;;;;1.77;1.17;;;7.00;99.90;;;;;;5085523;28;20241;-92
2022/04/29 03:57:49;;;;;;;1.60;1.50;;;7.00;99.90;;;;;;5035710;28;20213;-92
2022/04/29 04:00:16;;;;;;;2.10;2.00;;;7.10;99.90;;;;;;5070701;28;20210;-91
2022/04/29 04:02:42;;;;;;;1.43;1.33;;;7.20;99.90;;;;;;5086307;28;20670;-92
2022/04/29 04:05:09;;;;;;;5.90;1.60;;;7.20;99.90;;;;;;5053091;28;20184;-91
2022/04/29 04:07:36;;;;;;;3.03;2.07;;;7.30;99.90;;;;;;5032093;28;20223;-92
2022/04/29 04:10:04;;;;;;;1.60;1.20;;;7.30;99.90;;;;;;5083537;28;20785;-91
2022/04/29 04:12:42;;;;;;;1.63;1.53;;;7.40;99.90;;;;;;5069070;28;20218;-92
2022/04/29 04:15:10;;;;;;;2.03;1.27;;;7.40;99.90;;;;;;5053484;28;20272;-92
2022/04/29 04:17:37;;;;;;;4.07;1.70;;;7.40;99.90;;;;;;5088037;28;20285;-92
2022/04/29 04:20:06;;;;;;;2.87;1.93;;;7.50;99.90;;;;;;5054173;28;20185;-92
2022/04/29 04:22:32;;;;;;;6.57;2.10;;;7.60;99.90;;;;;;5053986;28;20237;-93
2022/04/29 04:24:59;;;;;;;1.97;1.63;;;7.60;99.90;;;;;;5036784;28;20210;-92
2022/04/29 04:27:25;;;;;;;2.13;1.73;;;7.70;99.90;;;;;;5066986;28;20761;-92
2022/04/29 04:29:51;;;;;;;1.60;1.50;;;7.70;99.90;;;;;;5052380;28;20210;-92
2022/04/29 04:32:18;;;;;;;3.03;2.10;;;7.70;99.90;;;;;;5035419;28;20186;-92
2022/04/29 04:34:50;;;;;;;1.63;1.53;;;7.70;99.90;;;;;;5034220;28;20207;-92
2022/04/29 04:37:17;;;;;;;2.77;2.10;;;7.60;99.90;;;;;;5056935;28;20223;-92
2022/04/29 04:39:44;;;;;;;1.67;1.57;;;7.60;99.90;;;;;;5052392;28;20227;-92
2022/04/29 04:42:10;;;;;;;2.70;2.07;;;7.60;99.90;;;;;;5054271;28;20670;-92
2022/04/29 04:44:36;;;;;;;10.43;2.93;;;7.60;99.90;;;;;;5068137;28;20201;-92
2022/04/29 04:47:03;;;;;;;1.87;1.77;;;7.70;99.90;;;;;;5052304;28;20197;-93
2022/04/29 04:49:28;;;;;;;2.93;2.43;;;7.70;99.90;;;;;;5049478;28;20236;-92
2022/04/29 04:51:54;;;;;;;2.03;1.90;;;7.70;99.90;;;;;;5034082;28;20217;-92
2022/04/29 04:54:20;;;;;;;2.30;1.57;;;7.80;99.90;;;;;;5067339;28;20284;-94
2022/04/29 04:56:46;;;;;;;3.03;2.27;;;7.80;99.90;;;;;;5068951;28;20213;-92
2022/04/29 04:59:12;;;;;;;3.37;1.60;;;7.90;99.90;;;;;;5035356;28;20619;-93
2022/04/29 05:01:39;;;;;;;2.20;2.00;;;7.90;99.90;;;;;;5068166;28;20247;-95
2022/04/29 05:04:08;;;;;;;2.90;2.20;;;8.00;99.90;;;;;;5064347;28;20248;-92
2022/04/29 05:06:36;;;;;;;2.43;2.23;;;8.10;99.90;;;;;;5071807;28;20693;-92
2022/04/29 05:09:05;;;;;;;1.57;1.47;;;8.20;99.90;;;;;;5047667;28;20234;-91
2022/04/29 05:11:35;;;;;;;2.97;1.60;;;8.20;99.90;;;;;;5056144;28;20169;-91
2022/04/29 05:14:01;;;;;;;2.17;1.97;;;8.30;99.90;;;;;;5049661;28;20263;-92
2022/04/29 05:16:29;;;;;;;2.50;2.17;;;8.40;99.90;;;;;;5048446;28;20694;-92
2022/04/29 05:18:55;;;;;;;3.43;1.50;;;8.50;99.90;;;;;;5050423;28;20265;-91
2022/04/29 05:21:21;;;;;;;2.77;2.50;;;8.50;99.90;;;;;;5048445;28;20225;-91
2022/04/29 05:23:50;;;;;;;2.90;2.70;;;8.50;99.90;;;;;;5033389;28;20217;-91
2022/04/29 05:26:15;;;;;;;2.70;1.70;;;8.50;99.90;;;;;;5032574;28;20201;-91
2022/04/29 05:28:41;;;;;;;1.73;1.63;;;8.50;99.90;;;;;;5031602;28;20213;-92
2022/04/29 05:31:07;;;;;;;10.63;1.50;;;8.40;99.90;;;;;;5065196;28;20217;-91
2022/04/29 05:33:34;;;;;;;1.87;1.60;;;8.30;99.90;;;;;;5037930;28;20336;-91
2022/04/29 05:36:04;;;;;;;1.73;1.30;;;8.30;99.90;;;;;;5062544;28;20678;-90
2022/04/29 05:42:14;;;;;;;3.80;1.40;;;8.30;99.90;;;;;;5035404;28;20194;-88
2022/04/29 05:44:00;;;;;;;1.57;1.47;;;8.30;99.90;;;;;;5048362;28;20214;-92
2022/04/29 05:46:26;;;;;;;4.17;1.70;;;8.40;99.90;;;;;;5031161;28;20203;-91
2022/04/29 05:48:52;;;;;;;6.60;1.47;;;8.40;99.90;;;;;;5031059;28;20214;-92
2022/04/29 05:51:18;;;;;;;1.97;1.80;;;8.40;99.90;;;;;;5048384;28;20573;-91
2022/04/29 05:53:43;;;;;;;1.50;1.30;;;8.50;99.90;;;;;;5064950;28;20228;-91
2022/04/29 05:56:10;;;;;;;1.60;1.37;;;8.60;99.90;;;;;;5065924;28;20272;-91
2022/04/29 05:58:35;;;;;;;2.03;1.83;;;8.70;99.90;;;;;;5031436;28;20228;-89
2022/04/29 06:01:02;;;;;;;5.03;2.43;;;8.70;99.90;;;;;;5064933;28;20785;-90
2022/04/29 06:03:28;;;;;;;5.40;2.00;;;8.80;99.90;;;;;;5047842;28;20210;-90
2022/04/29 06:05:54;;;;;;;1.43;1.17;;;8.90;99.90;;;;;;5064195;28;20255;-89
2022/04/29 06:08:20;;;;;;;5.80;2.13;;;9.00;99.90;;;;;;5064024;28;20186;-89
2022/04/29 06:10:45;;;;;;;2.37;2.17;;;9.10;99.90;;;;;;5032049;28;20182;-89
2022/04/29 06:13:12;;;;;;;1.20;1.03;;;9.10;99.90;;;;;;5033091;28;20235;-91
2022/04/29 06:15:38;;;;;;;2.30;1.73;;;9.20;99.90;;;;;;5068753;28;20240;-91
2022/04/29 06:18:04;;;;;;;2.93;1.53;;;9.30;99.90;;;;;;5032776;28;20574;-90
2022/04/29 06:20:30;;;;;;;2.13;1.83;;;9.30;99.90;;;;;;5033896;28;20288;-91
2022/04/29 06:22:55;;;;;;;0.87;0.87;;;9.30;99.90;;;;;;5065923;28;20661;-89
2022/04/29 06:25:22;;;;;;;3.83;1.60;;;9.30;99.90;;;;;;5048877;28;20577;-91
2022/04/29 06:27:48;;;;;;;1.40;1.17;;;9.40;99.90;;;;;;5033172;28;20256;-91
2022/04/29 06:30:14;;;;;;;1.73;1.13;;;9.30;99.90;;;;;;5037863;28;20658;-90
2022/04/29 06:32:41;;;;;;;1.33;1.23;;;9.30;99.90;;;;;;5055980;28;20205;-89
2022/04/29 06:35:08;;;;;;;1.83;1.30;;;9.40;99.90;;;;;;5037858;28;20236;-90
2022/04/29 06:37:35;;;;;;;2.07;1.97;;;9.50;99.90;;;;;;5036620;28;20271;-90
2022/04/29 06:40:01;;;;;;;4.60;2.07;;;9.40;99.90;;;;;;5070693;28;20218;-91
2022/04/29 06:42:27;;;;;;;2.97;2.03;;;9.40;99.90;;;;;;5070594;28;20203;-90
2022/04/29 06:44:53;;;;;;;4.13;2.00;;;9.40;99.90;;;;;;5054277;28;20205;-90
2022/04/29 06:47:19;;;;;;;1.70;1.60;;;9.50;99.90;;;;;;5053990;28;20634;-92
2022/04/29 06:49:45;;;;;;;1.70;1.50;;;9.50;99.90;;;;;;5070976;28;20296;-91
2022/04/29 06:52:11;;;;;;;1.73;1.37;;;9.60;99.90;;;;;;5051439;28;20221;-90
2022/04/29 06:54:38;;;;;;;0.77;0.77;;;9.70;99.90;;;;;;5068320;28;20233;-89
2022/04/29 06:57:04;;;;;;;1.30;1.20;;;9.80;99.90;;;;;;5068390;28;20713;-90
2022/04/29 06:59:31;;;;;;;6.03;1.33;;;9.90;99.90;;;;;;5068876;28;20190;-91
2022/04/29 07:01:57;;;;;;;3.60;1.33;;;9.90;99.90;;;;;;5036670;28;20702;-91
2022/04/29 07:04:28;;;;;;;1.60;1.47;;;10.00;99.90;;;;;;5069807;28;20217;-91
2022/04/29 07:06:57;;;;;;;0.83;0.83;;;9.90;99.90;;;;;;5070431;28;20225;-91
2022/04/29 07:09:24;;;;;;;1.40;1.17;;;10.00;99.90;;;;;;5028799;28;20221;-91
2022/04/29 07:11:51;;;;;;;1.10;1.00;;;10.00;99.90;;;;;;5036824;28;20214;-90
2022/04/29 07:14:18;;;;;;;1.27;1.23;;;10.00;99.90;;;;;;5054461;28;20562;-91
2022/04/29 07:16:44;;;;;;;2.23;1.90;;;10.00;99.90;;;;;;5054503;28;20193;-91
2022/04/29 07:19:10;;;;;;;0.63;0.63;;;10.10;99.90;;;;;;5055833;28;20214;-91
2022/04/29 07:21:36;;;;;;;1.20;1.10;;;10.00;99.90;;;;;;5037566;28;20304;-89
2022/04/29 07:24:02;;;;;;;4.10;0.90;;;10.00;99.90;;;;;;5033463;28;20215;-88
2022/04/29 07:26:29;;;;;;;0.97;0.97;;;10.20;99.90;;;;;;5020602;28;20190;-90
2022/04/29 07:28:55;;;;;;;2.03;1.13;;;10.20;99.90;;;;;;5037922;28;20277;-89
2022/04/29 07:31:21;;;;;;;1.60;1.50;;;10.10;99.90;;;;;;5088456;28;20243;-90
2022/04/29 07:33:46;;;;;;;1.70;1.60;;;10.20;99.90;;;;;;5041304;28;20207;-92
2022/04/29 07:41:44;;;;;;;2.50;2.30;;;10.10;99.90;;;;;;5049192;28;20225;-89
2022/04/29 07:44:13;;;;;;;2.63;1.20;;;10.10;99.90;;;;;;5068367;28;20190;-88
2022/04/29 07:46:40;;;;;;;2.43;1.20;;;9.90;99.90;;;;;;5032690;28;20218;-87
2022/04/29 07:49:06;;;;;;;3.60;1.67;;;9.90;99.90;;;;;;5032573;28;20218;-86
2022/04/29 07:51:32;;;;;;;1.53;0.90;;;9.80;99.90;;;;;;5066150;28;20240;-87
2022/04/29 07:53:58;;;;;;;3.60;1.20;;;9.80;99.90;;;;;;5065539;28;20765;-87
2022/04/29 07:56:23;;;;;;;0.80;0.80;;;9.70;99.90;;;;;;5066043;28;20243;-92
2022/04/29 07:58:49;;;;;;;1.10;1.00;;;9.80;99.90;;;;;;5033548;28;20205;-87
2022/04/29 08:01:16;;;;;;;2.83;1.50;;;9.80;99.90;;;;;;5066194;28;20608;-90
2022/04/29 08:03:42;;;;;;;3.40;1.30;;;10.00;99.90;;;;;;5032377;28;20223;-90
2022/04/29 08:06:08;;;;;;;5.90;2.17;;;10.10;99.90;;;;;;5049490;28;20262;-88
2022/04/29 08:08:37;;;;;;;1.37;1.07;;;10.20;99.90;;;;;;5066204;28;20202;-88
2022/04/29 08:11:03;;;;;;;4.03;1.17;;;10.30;99.90;;;;;;5050180;28;20186;-88
2022/04/29 08:13:30;;;;;;;1.90;1.67;;;10.40;99.90;;;;;;5049245;28;21162;-87
2022/04/29 08:15:58;;;;;;;1.37;1.27;;;10.40;99.90;;;;;;5048942;28;20241;-88
2022/04/29 08:18:26;;;;;;;1.43;1.20;;;10.50;99.90;;;;;;5065914;28;20798;-89
2022/04/29 08:20:52;;;;;;;2.87;2.20;;;10.50;99.90;;;;;;5050141;28;20566;-87
2022/04/29 08:23:18;;;;;;;1.00;0.93;;;10.40;99.90;;;;;;5065869;28;20248;-89
2022/04/29 08:25:44;;;;;;;2.40;1.70;;;9.90;99.90;;;;;;5066369;28;20194;-88
2022/04/29 08:28:10;;;;;;;4.23;1.27;;;10.00;99.90;;;;;;5049104;28;20221;-88
2022/04/29 08:30:36;;;;;;;2.10;1.47;;;10.00;99.90;;;;;;5032964;28;20704;-88
2022/04/29 08:33:02;;;;;;;1.73;1.47;;;10.10;99.90;;;;;;5032448;28;20213;-87
2022/04/29 08:35:29;;;;;;;1.20;1.10;;;9.90;99.90;;;;;;5065478;28;20205;-88
2022/04/29 08:37:56;;;;;;;3.97;1.57;;;9.90;99.90;;;;;;5066018;28;20193;-89
2022/04/29 08:40:23;;;;;;;3.77;1.50;;;9.90;99.90;;;;;;5065627;28;20618;-88
2022/04/29 08:42:50;;;;;;;4.97;1.80;;;9.90;99.90;;;;;;5063817;28;20210;-87
2022/04/29 08:45:18;;;;;;;1.30;1.20;;;10.00;99.90;;;;;;5081873;28;20206;-88
2022/04/29 08:47:46;;;;;;;1.13;1.03;;;10.10;99.90;;;;;;5048503;28;20210;-88
2022/04/29 08:50:15;;;;;;;1.57;1.13;;;10.10;99.90;;;;;;5066519;28;20194;-88
2022/04/29 08:52:41;;;;;;;1.33;1.20;;;10.10;99.90;;;;;;5081985;28;20666;-88
2022/04/29 09:00:41;;;;;;;2.20;2.03;;;10.10;99.90;;;;;;5049312;28;20237;-87
2022/04/29 09:03:14;;;;;;;2.43;1.63;;;10.10;99.90;;;;;;5064770;28;20213;-87
2022/04/29 09:05:41;;;;;;;1.50;1.33;;;9.90;99.90;;;;;;5059273;28;20925;-91
2022/04/29 09:08:07;;;;;;;1.83;1.70;;;10.00;99.90;;;;;;5048882;28;20178;-87
2022/04/29 09:10:34;;;;;;;1.40;1.30;;;10.00;99.90;;;;;;5031642;28;20209;-87
2022/04/29 09:13:15;;;;;;;9.83;1.70;;;9.90;99.90;;;;;;5048272;28;20237;-88
2022/04/29 09:15:54;;;;;;;1.70;1.60;;;10.10;99.90;;;;;;5056860;28;20693;-89
2022/04/29 09:18:35;;;;;;;1.83;1.67;;;9.90;99.90;;;;;;5049887;28;20210;-88
2022/04/29 09:21:25;;;;;;;6.97;1.43;;;9.90;99.90;;;;;;5082112;28;20312;-89
2022/04/29 09:23:57;;;;;;;1.13;1.10;;;10.00;99.90;;;;;;5051311;28;20213;-89
2022/04/29 09:26:27;;;;;;;2.67;1.00;;;10.10;99.90;;;;;;5032365;28;20178;-89
2022/04/29 09:28:55;;;;;;;1.67;1.47;;;10.20;99.90;;;;;;5047753;28;20243;-88
2022/04/29 09:31:21;;;;;;;2.47;1.30;;;10.20;99.90;;;;;;5047929;28;20261;-88
2022/04/29 09:33:57;;;;;;;1.20;1.10;;;10.30;99.90;;;;;;5028302;28;20242;-87
2022/04/29 09:36:25;;;;;;;1.67;1.57;;;10.40;99.90;;;;;;5020139;28;20256;-91
2022/04/29 09:41:36;;;;;;;4.90;1.77;;;10.30;99.90;;;;;;5055979;28;20190;-89
2022/04/29 09:44:02;;;;;;;2.37;1.77;;;10.10;99.90;;;;;;5011675;28;20678;-90
2022/04/29 09:46:28;;;;;;;2.80;1.10;;;10.40;99.90;;;;;;5016973;28;20329;-88
2022/04/29 09:49:06;;;;;;;1.30;1.20;;;10.50;99.90;;;;;;5058306;28;20218;-89
2022/04/29 09:51:50;;;;;;;5.70;1.27;;;10.40;99.90;;;;;;5047541;28;20210;-89
2022/04/29 09:54:17;;;;;;;4.30;1.30;;;10.00;99.90;;;;;;5048218;28;20236;-89
2022/04/29 09:57:03;;;;;;;10.97;1.10;;;10.20;99.90;;;;;;5048882;28;20217;-88
2022/04/29 09:59:37;;;;;;;4.47;1.20;;;10.20;99.90;;;;;;5080150;28;20214;-90
2022/04/29 10:02:04;;;;;;;1.10;1.10;;;10.30;99.90;;;;;;5080267;28;20187;-88
2022/04/29 10:04:32;;;;;;;2.37;1.33;;;10.30;99.90;;;;;;5063589;28;20217;-89
2022/04/29 10:06:59;;;;;;;1.40;1.20;;;10.50;99.90;;;;;;5064319;28;20294;-89
2022/04/29 10:09:30;;;;;;;1.50;1.20;;;10.70;99.90;;;;;;5047098;28;20309;-88
2022/04/29 10:11:58;;;;;;;1.40;1.10;;;10.60;99.90;;;;;;5047156;28;20213;-88
2022/04/29 10:14:27;;;;;;;1.77;1.23;;;10.60;99.90;;;;;;5047048;28;20252;-88
2022/04/29 10:22:52;;;;;;;1.50;1.40;;;10.70;99.90;;;;;;5047503;28;20228;-87
2022/04/29 10:25:24;;;;;;;4.00;1.20;;;10.80;99.90;;;;;;5046639;28;20225;-87
2022/04/29 10:27:51;;;;;;;0.93;0.77;;;10.80;99.90;;;;;;5063553;28;20746;-88
2022/04/29 10:30:32;;;;;;;3.07;1.40;;;10.80;99.90;;;;;;5047546;28;20224;-87
2022/04/29 10:33:03;;;;;;;2.37;1.70;;;10.90;99.90;;;;;;5046090;28;20213;-87
2022/04/29 10:35:47;;;;;;;1.77;1.63;;;10.90;99.90;;;;;;5046623;28;20576;-88
2022/04/29 10:38:16;;;;;;;2.07;1.97;;;11.00;99.90;;;;;;5080526;28;20178;-89
2022/04/29 10:40:43;;;;;;;1.77;1.00;;;11.10;99.90;;;;;;5063720;28;20316;-86
2022/04/29 10:43:13;;;;;;;1.10;1.10;;;11.10;99.90;;;;;;5046253;28;20214;-88
2022/04/29 10:46:04;;;;;;;0.97;0.97;;;11.00;99.90;;;;;;5080730;28;20367;-88
2022/04/29 10:48:36;;;;;;;1.20;1.10;;;11.10;99.90;;;;;;5047112;28;20209;-86
2022/04/29 10:51:09;;;;;;;1.40;1.07;;;11.20;99.90;;;;;;5037816;28;20217;-87
2022/04/29 10:53:37;;;;;;;1.20;1.10;;;11.40;99.90;;;;;;5045920;28;20705;-88
2022/04/29 10:56:28;;;;;;;1.30;1.30;;;11.70;99.90;;;;;;5079912;28;20316;-87
2022/04/29 10:59:15;;;;;;;0.97;0.83;;;12.00;99.90;;;;;;5062380;28;20214;-87
2022/04/29 11:01:48;;;;;;;3.03;0.80;;;12.10;99.90;;;;;;5080140;28;20639;-86
2022/04/29 11:04:16;;;;;;;4.07;1.43;;;11.60;99.90;;;;;;5078715;28;20868;-88
2022/04/29 11:06:46;;;;;;;0.67;0.63;;;11.40;99.90;;;;;;5077200;28;20217;-87
2022/04/29 11:09:35;;;;;;;0.97;0.97;;;11.10;99.90;;;;;;5061215;28;20285;-87
2022/04/29 11:12:02;;;;;;;1.33;1.10;;;10.90;99.90;;;;;;5073668;28;20211;-87
2022/04/29 11:14:29;;;;;;;6.33;1.47;;;10.80;99.90;;;;;;5012209;28;20289;-88
2022/04/29 11:16:59;;;;;;;2.43;1.50;;;10.90;99.90;;;;;;5015031;28;20183;-88
2022/04/29 11:19:28;;;;;;;0.70;0.70;;;10.80;99.90;;;;;;5030260;28;20264;-88
2022/04/29 11:24:44;;;;;;;1.30;1.20;;;10.90;99.90;;;;;;5044361;28;20222;-87
2022/04/29 11:27:11;;;;;;;2.50;0.90;;;10.80;99.90;;;;;;5016355;28;20222;-90
2022/04/29 11:29:47;;;;;;;2.13;1.03;;;10.80;99.90;;;;;;5066293;28;20273;-90
2022/04/29 11:32:13;;;;;;;1.47;0.90;;;11.00;99.90;;;;;;5066596;28;21138;-88
2022/04/29 11:34:55;;;;;;;0.90;0.90;;;11.10;99.90;;;;;;5064626;28;20221;-88
2022/04/29 11:37:35;;;;;;;1.17;1.00;;;11.30;99.90;;;;;;5082092;28;20690;-89
2022/04/29 11:40:10;;;;;;;5.47;1.33;;;11.40;99.90;;;;;;5034144;28;20301;-89
2022/04/29 11:42:36;;;;;;;1.87;1.40;;;11.50;99.90;;;;;;5057335;28;20228;-87
2022/04/29 11:45:07;;;;;;;1.03;0.80;;;11.70;99.90;;;;;;5044862;28;20214;-88
2022/04/29 11:47:33;;;;;;;1.40;1.30;;;11.60;99.90;;;;;;5013947;28;20701;-88
2022/04/29 11:50:01;;;;;;;1.30;1.00;;;11.30;99.90;;;;;;5013717;28;20220;-89
2022/04/29 11:52:30;;;;;;;1.33;0.97;;;11.60;99.90;;;;;;5029550;28;20548;-89
2022/04/29 11:55:02;;;;;;;2.47;1.50;;;11.80;99.90;;;;;;5021383;28;20246;-89
2022/04/29 11:57:41;;;;;;;1.93;1.17;;;11.80;99.90;;;;;;5062507;28;20206;-87
2022/04/29 12:00:08;;;;;;;1.20;1.10;;;11.90;99.90;;;;;;5028398;28;20211;-88
2022/04/29 12:02:34;;;;;;;3.53;1.30;;;12.00;99.90;;;;;;5029942;28;20187;-89
2022/04/29 12:05:03;;;;;;;3.10;1.13;;;12.20;99.90;;;;;;5013625;28;20270;-88
2022/04/29 12:07:38;;;;;;;1.20;1.10;;;11.80;99.90;;;;;;5022282;28;20683;-87
2022/04/29 12:10:16;;;;;;;1.93;1.00;;;12.00;99.90;;;;;;5037104;28;20244;-89
2022/04/29 12:12:42;;;;;;;1.83;1.20;;;12.30;99.90;;;;;;5021507;28;20226;-88
2022/04/29 12:15:10;;;;;;;0.80;0.80;;;11.90;99.90;;;;;;5045620;28;20226;-88
2022/04/29 12:17:38;;;;;;;2.03;1.30;;;11.90;99.90;;;;;;5028583;28;20182;-87
2022/04/29 12:20:07;;;;;;;0.80;0.80;;;12.30;99.90;;;;;;5030279;28;20198;-89
2022/04/29 12:22:36;;;;;;;2.17;1.63;;;12.50;99.90;;;;;;5025987;28;20221;-90
2022/04/29 12:25:28;;;;;;;0.97;0.97;;;12.70;99.90;;;;;;5011939;28;20256;-88
2022/04/29 12:28:07;;;;;;;0.80;0.80;;;12.70;99.90;;;;;;5030630;28;20679;-90
2022/04/29 12:36:13;;;;;;;1.20;1.03;;;12.80;99.90;;;;;;5030696;28;20273;-86
2022/04/29 12:38:45;;;;;;;3.30;1.70;;;12.90;99.90;;;;;;5019766;28;20802;-86
2022/04/29 12:41:24;;;;;;;1.37;1.10;;;13.00;99.90;;;;;;5029775;28;20198;-86
2022/04/29 12:43:51;;;;;;;2.27;1.67;;;13.00;99.90;;;;;;5048456;28;20210;-86
2022/04/29 12:46:22;;;;;;;1.10;1.00;;;12.90;99.90;;;;;;5031427;28;20242;-89
2022/04/29 12:48:52;;;;;;;1.73;1.27;;;12.80;99.90;;;;;;5045209;28;20275;-87
2022/04/29 12:51:28;;;;;;;1.30;1.20;;;12.80;99.90;;;;;;5044397;28;20218;-88
2022/04/29 12:53:55;;;;;;;5.37;1.23;;;12.80;99.90;;;;;;5028226;28;20221;-86
2022/04/29 12:56:32;;;;;;;4.13;1.40;;;12.70;99.90;;;;;;5052731;28;20207;-85
2022/04/29 12:59:00;;;;;;;3.67;2.00;;;12.60;99.90;;;;;;5062200;28;20190;-87
2022/04/29 13:01:35;;;;;;;1.27;1.10;;;12.90;99.90;;;;;;5027852;28;20219;-88
2022/04/29 13:04:00;;;;;;;4.10;1.80;;;12.50;99.90;;;;;;5044345;28;20217;-88
2022/04/29 13:06:26;;;;;;;1.40;1.30;;;12.60;99.90;;;;;;5027992;28;20928;-87
2022/04/29 13:08:54;;;;;;;1.27;1.20;;;12.90;99.90;;;;;;5027167;28;20250;-87
2022/04/29 13:11:21;;;;;;;1.63;1.53;;;12.70;99.90;;;;;;5044085;28;20189;-90
2022/04/29 13:13:48;;;;;;;7.17;2.60;;;12.80;99.90;;;;;;5028221;28;20210;-87
2022/04/29 13:16:15;;;;;;;1.97;1.30;;;12.80;99.90;;;;;;5027041;28;20237;-86
2022/04/29 13:18:41;;;;;;;4.87;2.10;;;12.70;99.90;;;;;;5028087;28;20280;-87
2022/04/29 13:21:08;;;;;;;2.80;1.70;;;12.70;99.90;;;;;;5027639;28;20215;-87
2022/04/29 13:23:38;;;;;;;2.20;1.70;;;12.60;99.90;;;;;;5009279;28;20195;-86
2022/04/29 13:26:05;;;;;;;5.40;2.13;;;12.20;99.90;;;;;;5027690;28;20198;-88
2022/04/29 13:28:35;;;;;;;2.97;1.93;;;12.20;99.90;;;;;;5027649;28;20695;-88
2022/04/29 13:31:02;;;;;;;1.57;1.43;;;12.10;99.90;;;;;;5042945;28;20218;-87